createdAt,value
2022-12-03T00:02:04.487Z,40.76
2022-12-03T00:04:31.693Z,40.47
2022-12-03T00:06:58.915Z,40.64
2022-12-03T00:09:26.073Z,40.79
2022-12-03T00:11:53.593Z,40.51
2022-12-03T00:14:22.312Z,40.85
2022-12-03T00:16:49.876Z,40.65
2022-12-03T00:19:17.033Z,40.73
2022-12-03T00:21:44.120Z,40.61
2022-12-03T00:24:11.233Z,41.43
2022-12-03T00:26:38.573Z,40.74
2022-12-03T00:29:05.814Z,40.69
2022-12-03T00:31:34.476Z,40.72
2022-12-03T00:34:01.794Z,40.71
2022-12-03T00:36:28.973Z,40.21
2022-12-03T00:38:56.035Z,40.48
2022-12-03T00:41:23.374Z,40.41
2022-12-03T00:43:50.413Z,40.73
2022-12-03T00:46:21.371Z,40.38
2022-12-03T00:48:50.533Z,40.01
2022-12-03T00:51:17.793Z,40.50
2022-12-03T00:53:44.955Z,40.00
2022-12-03T00:56:12.414Z,39.41
2022-12-03T00:58:39.495Z,39.70
2022-12-03T01:01:06.653Z,40.37
2022-12-03T01:03:33.775Z,40.05
2022-12-03T01:06:02.394Z,40.05
2022-12-03T01:08:29.576Z,40.00
2022-12-03T01:10:56.712Z,40.89
2022-12-03T01:13:23.853Z,40.66
2022-12-03T01:15:50.981Z,40.61
2022-12-03T01:18:18.276Z,40.60
2022-12-03T01:20:45.453Z,40.85
2022-12-03T01:23:13.937Z,40.98
2022-12-03T01:25:41.032Z,40.54
2022-12-03T01:28:08.102Z,40.83
2022-12-03T01:30:35.199Z,40.59
2022-12-03T01:33:02.233Z,40.71
2022-12-03T01:35:29.295Z,40.80
2022-12-03T01:37:56.372Z,39.82
2022-12-03T01:40:25.134Z,40.24
2022-12-03T01:42:52.251Z,40.61
2022-12-03T01:45:23.939Z,39.58
2022-12-03T01:47:51.411Z,39.43
2022-12-03T01:50:27.380Z,43.45
2022-12-03T01:52:58.394Z,44.08
2022-12-03T01:55:27.391Z,44.54
2022-12-03T01:57:57.553Z,41.00
2022-12-03T02:00:27.173Z,42.26
2022-12-03T02:02:57.198Z,44.89
2022-12-03T02:05:26.866Z,39.49
2022-12-03T02:07:55.013Z,42.52
2022-12-03T02:10:31.251Z,42.93
2022-12-03T02:13:03.010Z,40.32
2022-12-03T02:15:30.550Z,41.56
2022-12-03T02:17:57.912Z,41.52
2022-12-03T02:20:25.335Z,42.96
2022-12-03T02:23:05.151Z,37.85
2022-12-03T02:25:36.610Z,38.70
2022-12-03T02:28:06.270Z,39.38
2022-12-03T02:30:34.632Z,39.07
2022-12-03T02:33:02.553Z,38.61
2022-12-03T02:35:34.056Z,39.68
2022-12-03T02:38:08.517Z,41.52
2022-12-03T02:40:38.191Z,40.17
2022-12-03T02:43:06.611Z,40.49
2022-12-03T02:45:38.367Z,37.85
2022-12-03T02:48:11.566Z,40.60
2022-12-03T02:50:44.025Z,40.72
2022-12-03T02:53:17.817Z,41.93
2022-12-03T02:55:47.559Z,38.57
2022-12-03T02:58:16.098Z,38.91
2022-12-03T03:00:44.927Z,40.31
2022-12-03T03:03:12.985Z,39.24
2022-12-03T03:05:41.308Z,38.86
2022-12-03T03:08:10.808Z,39.25
2022-12-03T03:10:41.027Z,43.24
2022-12-03T03:13:12.343Z,40.58
2022-12-03T03:15:40.880Z,40.66
2022-12-03T03:18:10.241Z,40.60
2022-12-03T03:20:38.360Z,41.39
2022-12-03T03:23:12.994Z,40.12
2022-12-03T03:25:43.779Z,40.76
2022-12-03T03:28:14.105Z,40.87
2022-12-03T03:30:43.188Z,39.61
2022-12-03T03:33:12.620Z,44.49
2022-12-03T03:35:40.859Z,41.50
2022-12-03T03:38:10.022Z,40.24
2022-12-03T03:40:38.980Z,39.22
2022-12-03T03:43:08.600Z,40.46
2022-12-03T03:45:37.148Z,43.02
2022-12-03T03:48:04.525Z,41.73
2022-12-03T03:50:33.100Z,40.33
2022-12-03T03:53:02.903Z,41.59
2022-12-03T03:55:30.930Z,40.88
2022-12-03T03:57:59.049Z,39.13
2022-12-03T04:00:26.449Z,41.08
2022-12-03T04:02:55.049Z,42.10
2022-12-03T04:05:24.459Z,42.06
2022-12-03T04:07:51.638Z,40.76
2022-12-03T04:10:19.061Z,40.27
2022-12-03T04:12:46.120Z,39.59
2022-12-03T04:15:13.131Z,39.51
2022-12-03T04:17:40.140Z,41.14
2022-12-03T04:20:09.820Z,42.08
2022-12-03T04:22:36.940Z,40.43
2022-12-03T04:25:04.640Z,39.81
2022-12-03T04:27:31.724Z,39.70
2022-12-03T04:29:58.840Z,39.94
2022-12-03T04:32:25.909Z,39.75
2022-12-03T04:34:53.237Z,39.39
2022-12-03T04:37:22.012Z,39.82
2022-12-03T04:39:49.118Z,39.96
2022-12-03T04:42:16.631Z,41.06
2022-12-03T04:44:43.684Z,39.05
2022-12-03T04:47:12.484Z,41.28
2022-12-03T04:49:41.759Z,39.99
2022-12-03T04:52:09.900Z,39.67
2022-12-03T04:54:39.668Z,39.12
2022-12-03T04:57:07.810Z,39.43
2022-12-03T04:59:36.348Z,39.38
2022-12-03T05:02:04.832Z,39.69
2022-12-03T05:04:32.078Z,39.87
2022-12-03T05:06:59.269Z,39.52
2022-12-03T05:09:26.453Z,38.97
2022-12-03T05:11:55.051Z,38.95
2022-12-03T05:14:22.082Z,39.90
2022-12-03T05:16:49.167Z,40.66
2022-12-03T05:19:16.302Z,40.70
2022-12-03T05:21:43.463Z,39.87
2022-12-03T05:24:10.563Z,40.59
2022-12-03T05:26:37.644Z,39.06
2022-12-03T05:29:06.143Z,40.73
2022-12-03T05:31:33.344Z,39.48
2022-12-03T05:34:00.565Z,39.78
2022-12-03T05:36:27.690Z,41.18
2022-12-03T05:38:54.810Z,39.31
2022-12-03T05:41:21.887Z,40.50
2022-12-03T05:43:49.024Z,38.64
2022-12-03T05:46:17.763Z,38.56
2022-12-03T05:48:44.939Z,41.69
2022-12-03T05:51:12.180Z,39.68
2022-12-03T05:53:39.277Z,39.28
2022-12-03T05:56:07.077Z,38.76
2022-12-03T05:58:34.184Z,39.65
2022-12-03T06:01:01.346Z,40.41
2022-12-03T06:03:29.902Z,39.67
2022-12-03T06:05:57.088Z,39.46
2022-12-03T06:08:24.107Z,40.63
2022-12-03T06:10:51.188Z,38.93
2022-12-03T06:13:18.413Z,39.19
2022-12-03T06:15:45.592Z,39.63
2022-12-03T06:18:12.783Z,40.83
2022-12-03T06:20:41.284Z,41.42
2022-12-03T06:23:08.364Z,41.54
2022-12-03T06:25:35.488Z,38.34
2022-12-03T06:28:02.573Z,39.21
2022-12-03T06:30:29.687Z,39.27
2022-12-03T06:32:56.787Z,39.92
2022-12-03T06:35:23.936Z,40.62
2022-12-03T06:37:52.474Z,37.76
2022-12-03T06:40:19.575Z,38.38
2022-12-03T06:42:46.712Z,39.95
2022-12-03T06:45:13.856Z,40.01
2022-12-03T06:47:41.036Z,40.07
2022-12-03T06:50:09.264Z,38.89
2022-12-03T06:52:36.887Z,39.86
2022-12-03T06:55:06.586Z,39.45
2022-12-03T06:57:33.666Z,38.18
2022-12-03T07:00:00.746Z,39.98
2022-12-03T07:02:28.105Z,40.57
2022-12-03T07:04:55.424Z,38.96
2022-12-03T07:07:22.662Z,39.95
2022-12-03T07:09:49.850Z,39.19
2022-12-03T07:12:18.524Z,40.19
2022-12-03T07:14:45.570Z,38.48
2022-12-03T07:17:12.725Z,39.31
2022-12-03T07:19:39.903Z,39.37
2022-12-03T07:22:06.963Z,39.30
2022-12-03T07:24:34.004Z,38.61
2022-12-03T07:27:01.090Z,40.31
2022-12-03T07:29:29.667Z,39.75
2022-12-03T07:31:56.817Z,40.65
2022-12-03T07:34:24.020Z,42.03
2022-12-03T07:36:51.196Z,39.91
2022-12-03T07:39:18.236Z,40.71
2022-12-03T07:41:45.996Z,39.33
2022-12-03T07:44:14.922Z,38.67
2022-12-03T07:46:46.001Z,40.64
2022-12-03T07:49:13.362Z,38.85
2022-12-03T07:51:41.555Z,41.64
2022-12-03T07:54:08.898Z,39.28
2022-12-03T07:56:35.960Z,41.54
2022-12-03T07:59:03.095Z,39.71
2022-12-03T08:01:30.284Z,40.71
2022-12-03T08:03:58.866Z,38.54
2022-12-03T08:06:26.410Z,39.90
2022-12-03T08:08:53.485Z,40.52
2022-12-03T08:11:20.578Z,41.38
2022-12-03T08:13:47.717Z,38.69
2022-12-03T08:16:18.307Z,38.88
2022-12-03T08:18:47.641Z,40.07
2022-12-03T08:21:20.084Z,40.98
2022-12-03T08:23:47.803Z,38.41
2022-12-03T08:26:22.121Z,38.18
2022-12-03T08:28:49.381Z,39.22
2022-12-03T08:31:20.849Z,38.92
2022-12-03T08:33:50.141Z,39.21
2022-12-03T08:36:23.122Z,38.21
2022-12-03T08:38:52.641Z,39.37
2022-12-03T08:41:20.883Z,39.09
2022-12-03T08:43:48.022Z,38.92
2022-12-03T08:46:19.551Z,40.46
2022-12-03T08:48:48.989Z,38.01
2022-12-03T08:51:21.942Z,38.95
2022-12-03T08:53:55.441Z,39.30
2022-12-03T08:56:29.002Z,38.57
2022-12-03T08:58:59.303Z,40.00
2022-12-03T09:01:38.198Z,38.46
2022-12-03T09:04:31.111Z,39.53
2022-12-03T09:06:59.701Z,36.78
2022-12-03T09:09:26.925Z,37.14
2022-12-03T09:11:54.219Z,38.58
2022-12-03T09:14:21.870Z,42.29
2022-12-03T09:16:52.527Z,38.53
2022-12-03T09:19:19.649Z,34.54
2022-12-03T09:21:46.803Z,37.30
2022-12-03T09:24:15.362Z,36.79
2022-12-03T09:26:42.480Z,33.29
2022-12-03T09:29:12.405Z,32.94
2022-12-03T09:31:40.407Z,33.33
2022-12-03T09:34:08.359Z,34.74
2022-12-03T09:36:50.679Z,36.32
2022-12-03T09:39:19.380Z,36.01
2022-12-03T09:41:46.893Z,35.63
2022-12-03T09:44:17.981Z,35.87
2022-12-03T09:46:48.010Z,35.30
2022-12-03T09:49:18.349Z,35.73
2022-12-03T09:51:46.349Z,37.57
2022-12-03T09:54:24.593Z,38.43
2022-12-03T09:56:53.053Z,36.92
2022-12-03T09:59:22.126Z,41.55
2022-12-03T10:01:49.604Z,41.11
2022-12-03T10:04:17.052Z,37.32
2022-12-03T10:06:46.070Z,38.81
2022-12-03T10:09:22.521Z,36.81
2022-12-03T10:11:51.455Z,35.21
2022-12-03T10:14:20.640Z,34.53
2022-12-03T10:16:48.514Z,34.19
2022-12-03T10:19:22.355Z,37.20
2022-12-03T10:21:49.722Z,35.46
2022-12-03T10:24:23.358Z,35.24
2022-12-03T10:26:54.360Z,36.75
2022-12-03T10:29:31.328Z,35.81
2022-12-03T10:32:03.144Z,36.34
2022-12-03T10:34:32.921Z,37.10
2022-12-03T10:37:12.265Z,37.02
2022-12-03T10:39:57.769Z,37.84
2022-12-03T10:42:28.082Z,39.83
2022-12-03T10:45:14.560Z,39.77
2022-12-03T10:47:41.987Z,38.79
2022-12-03T10:50:19.959Z,38.32
2022-12-03T10:52:47.367Z,39.61
2022-12-03T10:55:16.206Z,38.82
2022-12-03T10:57:46.038Z,38.05
2022-12-03T11:00:17.638Z,37.50
2022-12-03T11:02:45.151Z,38.72
2022-12-03T11:05:15.784Z,39.41
2022-12-03T11:07:44.400Z,36.52
2022-12-03T11:10:16.727Z,37.90
2022-12-03T11:13:23.557Z,37.26
2022-12-03T11:15:50.779Z,39.57
2022-12-03T11:18:50.824Z,39.35
2022-12-03T11:21:18.129Z,38.13
2022-12-03T11:24:15.249Z,37.89
2022-12-03T11:27:22.018Z,38.94
2022-12-03T11:30:10.018Z,39.42
2022-12-03T11:33:04.222Z,38.74
2022-12-03T11:36:11.722Z,39.50
2022-12-03T11:38:54.539Z,39.50
2022-12-03T11:41:33.717Z,36.74
2022-12-03T11:44:31.759Z,37.10
2022-12-03T11:47:13.297Z,37.47
2022-12-03T11:49:48.062Z,36.15
2022-12-03T11:52:25.677Z,37.38
2022-12-03T11:55:00.038Z,38.24
2022-12-03T11:57:33.520Z,37.65
2022-12-03T12:00:05.209Z,37.83
2022-12-03T12:02:33.892Z,37.86
2022-12-03T12:05:16.479Z,38.24
2022-12-03T12:07:43.868Z,38.50
2022-12-03T12:10:11.905Z,37.80
2022-12-03T12:12:43.421Z,38.26
2022-12-03T12:15:40.759Z,38.09
2022-12-03T12:18:41.071Z,37.95
2022-12-03T12:21:39.871Z,38.02
2022-12-03T12:24:32.623Z,38.22
2022-12-03T12:27:02.685Z,39.34
2022-12-03T12:29:29.764Z,39.58
2022-12-03T12:32:18.241Z,39.26
2022-12-03T12:34:49.522Z,40.55
2022-12-03T12:37:20.604Z,39.58
2022-12-03T12:39:48.522Z,40.16
2022-12-03T12:42:32.985Z,39.57
2022-12-03T12:45:09.091Z,39.91
2022-12-03T12:47:36.751Z,39.89
2022-12-03T12:50:11.141Z,39.33
2022-12-03T12:52:48.503Z,39.28
2022-12-03T12:55:15.642Z,39.14
2022-12-03T12:57:42.662Z,39.56
2022-12-03T13:00:15.495Z,38.66
2022-12-03T13:02:48.912Z,38.43
2022-12-03T13:05:18.422Z,38.92
2022-12-03T13:07:46.176Z,40.16
2022-12-03T13:10:34.143Z,38.82
2022-12-03T13:13:15.753Z,39.41
2022-12-03T13:15:49.643Z,38.71
2022-12-03T13:18:28.101Z,39.09
2022-12-03T13:20:56.762Z,38.88
2022-12-03T13:23:29.782Z,39.41
2022-12-03T13:26:04.008Z,37.97
2022-12-03T13:28:42.163Z,38.00
2022-12-03T13:31:24.997Z,45.18
2022-12-03T13:33:53.584Z,38.18
2022-12-03T13:36:27.522Z,38.57
2022-12-03T13:38:54.623Z,38.80
2022-12-03T13:41:21.762Z,39.68
2022-12-03T13:43:48.842Z,46.67
2022-12-03T13:46:16.697Z,38.82
2022-12-03T13:48:43.935Z,38.57
2022-12-03T13:51:23.561Z,39.57
2022-12-03T13:53:54.402Z,39.21
2022-12-03T13:56:27.568Z,39.42
2022-12-03T13:58:55.662Z,39.79
2022-12-03T14:01:22.897Z,40.15
2022-12-03T14:03:50.695Z,40.26
2022-12-03T14:06:17.962Z,40.91
2022-12-03T14:08:45.242Z,41.28
2022-12-03T14:11:13.783Z,42.17
2022-12-03T14:13:40.862Z,42.14
2022-12-03T14:16:08.257Z,42.04
2022-12-03T14:18:35.402Z,41.68
2022-12-03T14:21:02.542Z,41.39
2022-12-03T14:23:29.583Z,41.17
2022-12-03T14:25:56.687Z,41.58
2022-12-03T14:28:25.304Z,41.30
2022-12-03T14:30:52.421Z,41.26
2022-12-03T14:33:19.621Z,42.04
2022-12-03T14:35:46.902Z,42.07
2022-12-03T14:38:14.062Z,41.63
2022-12-03T14:40:41.182Z,42.08
2022-12-03T14:43:08.426Z,41.80
2022-12-03T14:45:37.181Z,41.51
2022-12-03T14:48:04.527Z,41.69
2022-12-03T14:50:31.586Z,41.87
2022-12-03T14:52:58.762Z,41.84
2022-12-03T14:55:26.003Z,42.20
2022-12-03T14:57:53.202Z,42.21
2022-12-03T15:00:21.242Z,42.16
2022-12-03T15:02:49.858Z,42.36
2022-12-03T15:05:17.242Z,42.20
2022-12-03T15:07:44.420Z,41.85
2022-12-03T15:10:11.863Z,42.04
2022-12-03T15:12:39.014Z,41.99
2022-12-03T15:15:07.442Z,42.20
2022-12-03T15:17:34.535Z,41.53
2022-12-03T15:20:03.246Z,42.46
2022-12-03T15:22:30.782Z,41.72
2022-12-03T15:24:58.324Z,41.81
2022-12-03T15:27:25.503Z,41.84
2022-12-03T15:29:52.999Z,41.69
2022-12-03T15:32:20.366Z,41.57
2022-12-03T15:34:47.565Z,41.47
2022-12-03T15:37:16.062Z,41.91
2022-12-03T15:39:52.400Z,42.09
2022-12-03T15:42:19.662Z,41.86
2022-12-03T15:44:46.922Z,41.99
2022-12-03T15:47:14.125Z,42.32
2022-12-03T15:49:41.283Z,42.44
2022-12-03T15:52:08.401Z,42.71
2022-12-03T15:54:36.883Z,42.85
2022-12-03T15:57:04.122Z,42.81
2022-12-03T15:59:31.223Z,42.47
2022-12-03T16:01:58.517Z,42.70
2022-12-03T16:04:25.674Z,42.46
2022-12-03T16:06:52.822Z,42.42
2022-12-03T16:09:25.250Z,42.55
2022-12-03T16:11:55.925Z,42.42
2022-12-03T16:14:23.102Z,42.58
2022-12-03T16:16:50.183Z,42.59
2022-12-03T16:19:17.323Z,42.56
2022-12-03T16:21:44.482Z,42.60
2022-12-03T16:24:11.542Z,42.69
2022-12-03T16:26:38.719Z,42.55
2022-12-03T16:29:07.283Z,42.54
2022-12-03T16:31:34.558Z,42.66
2022-12-03T16:34:01.782Z,42.66
2022-12-03T16:36:28.984Z,42.08
2022-12-03T16:38:56.023Z,42.31
2022-12-03T16:41:23.203Z,42.74
2022-12-03T16:43:50.285Z,42.64
2022-12-03T16:46:18.965Z,42.50
2022-12-03T16:48:46.343Z,43.01
2022-12-03T16:51:13.861Z,42.86
2022-12-03T16:53:41.125Z,42.70
2022-12-03T16:56:08.881Z,42.78
2022-12-03T16:58:36.146Z,42.30
2022-12-03T17:01:03.460Z,42.45
2022-12-03T17:03:34.108Z,42.60
2022-12-03T17:06:01.807Z,42.06
2022-12-03T17:08:28.921Z,42.34
2022-12-03T17:10:56.171Z,42.12
2022-12-03T17:13:23.357Z,42.39
2022-12-03T17:15:50.816Z,42.42
2022-12-03T17:18:18.083Z,42.72
2022-12-03T17:20:46.661Z,42.54
2022-12-03T17:23:13.761Z,42.30
2022-12-03T17:25:40.820Z,42.44
2022-12-03T17:28:07.980Z,42.64
2022-12-03T17:30:35.122Z,42.31
2022-12-03T17:33:02.283Z,42.11
2022-12-03T17:35:29.467Z,41.93
2022-12-03T17:37:58.022Z,42.27
2022-12-03T17:40:25.333Z,41.80
2022-12-03T17:42:52.561Z,42.24
2022-12-03T17:45:21.642Z,42.22
2022-12-03T17:47:48.741Z,42.15
2022-12-03T17:50:15.940Z,42.47
2022-12-03T17:52:43.063Z,42.21
2022-12-03T17:55:16.262Z,42.47
2022-12-03T17:57:51.762Z,42.17
2022-12-03T18:00:19.608Z,42.10
2022-12-03T18:02:47.600Z,42.45
2022-12-03T18:05:14.922Z,42.59
2022-12-03T18:07:42.129Z,42.58
2022-12-03T18:10:09.572Z,41.72
2022-12-03T18:12:38.164Z,42.14
2022-12-03T18:15:05.920Z,42.14
2022-12-03T18:17:33.082Z,42.36
2022-12-03T18:20:00.210Z,42.36
2022-12-03T18:22:28.359Z,42.38
2022-12-03T18:24:55.941Z,42.82
2022-12-03T18:27:24.322Z,42.64
2022-12-03T18:29:53.273Z,42.60
2022-12-03T18:32:28.847Z,42.75
2022-12-03T18:34:57.387Z,43.08
2022-12-03T18:37:27.870Z,46.93
2022-12-03T18:39:57.578Z,42.35
2022-12-03T18:42:25.320Z,42.34
2022-12-03T18:44:56.244Z,42.35
2022-12-03T18:47:26.692Z,42.26
2022-12-03T18:49:54.233Z,42.28
2022-12-03T18:52:23.459Z,42.49
2022-12-03T18:54:50.680Z,42.67
2022-12-03T18:57:17.828Z,42.48
2022-12-03T18:59:44.923Z,42.94
2022-12-03T19:02:45.963Z,43.03
2022-12-03T19:05:06.422Z,43.02
2022-12-03T19:07:33.589Z,43.11
2022-12-03T19:10:00.699Z,43.59
2022-12-03T19:12:27.879Z,43.47
2022-12-03T19:14:54.929Z,43.69
2022-12-03T19:17:23.621Z,43.77
2022-12-03T19:19:50.633Z,43.53
2022-12-03T19:22:17.743Z,43.38
2022-12-03T19:24:44.843Z,43.43
2022-12-03T19:27:12.021Z,43.39
2022-12-03T19:29:39.460Z,43.16
2022-12-03T19:32:06.638Z,42.98
2022-12-03T19:34:35.540Z,43.11
2022-12-03T19:37:02.667Z,42.94
2022-12-03T19:39:29.818Z,43.18
2022-12-03T19:41:56.860Z,43.45
2022-12-03T19:44:23.899Z,43.24
2022-12-03T19:46:51.654Z,43.43
2022-12-03T19:49:19.040Z,43.54
2022-12-03T19:51:48.046Z,43.71
2022-12-03T19:54:16.245Z,43.59
2022-12-03T19:56:44.201Z,43.60
2022-12-03T19:59:13.219Z,43.56
2022-12-03T20:01:41.448Z,43.50
2022-12-03T20:04:10.522Z,43.69
2022-12-03T20:06:38.862Z,43.54
2022-12-03T20:09:10.202Z,43.61
2022-12-03T20:11:39.082Z,43.86
2022-12-03T20:14:08.681Z,44.17
2022-12-03T20:16:36.276Z,58.90
2022-12-03T20:19:06.170Z,42.21
2022-12-03T20:21:35.660Z,36.77
2022-12-03T20:24:04.223Z,34.01
2022-12-03T20:26:33.999Z,30.67
2022-12-03T20:29:01.360Z,33.24
2022-12-03T20:31:31.047Z,34.82
2022-12-03T20:34:00.142Z,36.39
2022-12-03T20:36:29.603Z,37.63
2022-12-03T20:38:59.659Z,39.07
2022-12-03T20:41:26.901Z,39.73
2022-12-03T20:43:56.044Z,40.21
2022-12-03T20:46:25.298Z,40.87
2022-12-03T20:48:52.963Z,41.38
2022-12-03T20:51:22.101Z,41.56
2022-12-03T20:53:49.962Z,42.39
2022-12-03T20:56:18.604Z,42.64
2022-12-03T20:58:45.860Z,42.79
2022-12-03T21:01:16.710Z,43.05
2022-12-03T21:03:44.621Z,42.96
2022-12-03T21:06:12.341Z,43.42
2022-12-03T21:08:42.438Z,43.28
2022-12-03T21:11:10.562Z,43.61
2022-12-03T21:13:37.861Z,43.35
2022-12-03T21:16:08.041Z,43.34
2022-12-03T21:18:37.343Z,43.20
2022-12-03T21:21:06.045Z,43.22
2022-12-03T21:23:34.980Z,43.68
2022-12-03T21:26:04.183Z,43.51
2022-12-03T21:28:31.261Z,43.70
2022-12-03T21:31:02.978Z,43.48
2022-12-03T21:33:31.445Z,43.56
2022-12-03T21:36:01.048Z,43.53
2022-12-03T21:38:29.680Z,43.44
2022-12-03T21:40:57.880Z,43.45
2022-12-03T21:43:26.281Z,43.52
2022-12-03T21:45:53.895Z,43.28
2022-12-03T21:48:22.100Z,43.42
2022-12-03T21:51:00.501Z,43.48
2022-12-03T21:53:28.541Z,43.27
2022-12-03T21:55:55.739Z,43.33
2022-12-03T21:58:22.920Z,43.15
2022-12-03T22:00:50.380Z,43.48
2022-12-03T22:03:17.650Z,43.18
2022-12-03T22:05:44.820Z,43.29
2022-12-03T22:08:13.508Z,43.32
2022-12-03T22:10:41.301Z,43.26
2022-12-03T22:13:08.761Z,43.35
2022-12-03T22:15:38.513Z,43.67
2022-12-03T22:18:05.780Z,43.43
2022-12-03T22:20:32.881Z,43.44
2022-12-03T22:22:59.940Z,43.12
2022-12-03T22:25:28.440Z,43.24
2022-12-03T22:27:55.561Z,43.16
2022-12-03T22:30:22.657Z,43.15
2022-12-03T22:32:49.760Z,43.29
2022-12-03T22:35:17.041Z,43.01
2022-12-03T22:37:44.125Z,43.19
2022-12-03T22:40:11.760Z,43.15
2022-12-03T22:42:40.252Z,43.21
2022-12-03T22:45:08.061Z,43.23
2022-12-03T22:47:35.201Z,43.05
2022-12-03T22:50:02.401Z,43.14
2022-12-03T22:52:30.530Z,43.58
2022-12-03T22:54:57.636Z,43.39
2022-12-03T22:57:24.781Z,43.70
2022-12-03T22:59:53.615Z,43.19
2022-12-03T23:02:21.033Z,43.58
2022-12-03T23:04:48.321Z,43.45
2022-12-03T23:07:16.803Z,43.90
2022-12-03T23:09:43.980Z,43.58
2022-12-03T23:12:11.281Z,43.61
2022-12-03T23:14:38.420Z,43.08
2022-12-03T23:17:06.920Z,43.18
2022-12-03T23:19:33.960Z,43.25
2022-12-03T23:22:01.163Z,43.25
2022-12-03T23:24:28.248Z,43.21
2022-12-03T23:26:55.380Z,43.22
2022-12-03T23:29:22.540Z,43.07
2022-12-03T23:31:49.712Z,43.21
2022-12-03T23:34:18.318Z,43.79
2022-12-03T23:36:45.442Z,43.45
2022-12-03T23:39:12.602Z,43.50
2022-12-03T23:41:39.623Z,43.31
2022-12-03T23:44:06.701Z,43.28
2022-12-03T23:46:33.850Z,43.30
2022-12-03T23:49:01.080Z,43.31
2022-12-03T23:51:29.560Z,43.16
2022-12-03T23:53:57.380Z,43.01
2022-12-03T23:56:27.023Z,42.89
2022-12-03T23:58:54.820Z,43.02
